Time;durP1;ratioP1;P1;durP2;ratioP2;P2;SDS_P1;SDS_P2;PMS_P1;PMS_P2;Temp;Humidity;BMP_temperature;BMP_pressure;BME280_temperature;BME280_humidity;BME280_pressure;Samples;Min_cycle;Max_cycle;Signal;HPM_P1;HPM_P2
2022/10/11 00:00:52;;;;;;;15.47;8.33;;;13.10;99.90;;;13.63;93.31;98396.66;5038376;28;20449;-92
2022/10/11 00:03:20;;;;;;;9.60;8.33;;;13.10;99.90;;;13.35;93.92;98370.84;5018732;28;20461;-91
2022/10/11 00:05:47;;;;;;;13.50;9.07;;;13.10;99.90;;;13.55;93.41;98386.94;5023173;28;20547;-91
2022/10/11 00:08:15;;;;;;;12.10;8.90;;;13.10;99.90;;;13.60;93.42;98393.34;5013840;28;20473;-92
2022/10/11 00:10:43;;;;;;;14.30;9.60;;;13.20;99.90;;;13.56;93.36;98381.25;5029925;28;20527;-93
2022/10/11 00:13:15;;;;;;;12.00;9.53;;;13.20;99.90;;;12.72;93.83;98263.16;5018665;28;20449;-92
2022/10/11 00:15:42;;;;;;;12.40;8.60;;;13.10;99.90;;;13.51;93.96;98397.41;5036189;28;20458;-90
2022/10/11 00:18:10;;;;;;;10.30;9.20;;;13.10;99.90;;;13.01;93.97;98355.72;5020039;28;20463;-91
2022/10/11 00:20:37;;;;;;;12.57;10.03;;;13.00;99.90;;;13.33;94.79;98406.31;5035811;28;20829;-93
2022/10/11 00:23:05;;;;;;;11.77;9.60;;;12.90;99.90;;;13.34;95.02;98407.16;5015660;28;20458;-95
2022/10/11 00:25:34;;;;;;;11.60;9.07;;;12.80;99.90;;;13.41;94.73;98418.78;5019968;28;20485;-92
2022/10/11 00:28:01;;;;;;;15.20;10.50;;;12.90;99.90;;;13.29;95.40;98405.97;5016491;28;20539;-91
2022/10/11 00:30:31;;;;;;;12.37;10.13;;;12.80;99.90;;;13.12;95.60;98372.31;5049087;28;20453;-94
2022/10/11 00:32:59;;;;;;;12.90;9.97;;;12.80;99.90;;;13.27;95.59;98435.22;5035232;28;20856;-93
2022/10/11 00:35:27;;;;;;;11.30;10.10;;;12.80;99.90;;;13.30;95.90;98423.91;5023048;28;20511;-92
2022/10/11 00:37:57;;;;;;;13.20;11.27;;;12.80;99.90;;;13.21;96.21;98419.78;5032389;28;20590;-90
2022/10/11 00:40:24;;;;;;;20.70;10.43;;;12.80;99.90;;;13.31;96.02;98419.28;5043141;28;20571;-91
2022/10/11 00:42:52;;;;;;;13.53;9.90;;;12.80;99.90;;;13.02;95.47;98379.06;5051170;28;20480;-95
2022/10/11 00:46:12;;;;;;;12.83;9.30;;;12.80;99.90;;;13.34;95.34;98421.53;5020219;28;20509;-92
2022/10/11 00:48:45;;;;;;;12.20;9.70;;;12.80;99.90;;;13.31;93.66;98382.16;5020872;28;20482;-95
2022/10/11 00:51:21;;;;;;;13.47;10.77;;;12.90;99.90;;;13.07;93.03;98343.16;5034715;28;20475;-90
2022/10/11 00:53:51;;;;;;;14.87;10.10;;;13.00;99.90;;;13.42;93.20;98404.16;5025242;28;20448;-92
2022/10/11 00:56:24;;;;;;;12.17;9.83;;;13.00;99.90;;;13.19;93.12;98381.22;5011336;28;20450;-90
2022/10/11 00:58:52;;;;;;;12.83;9.37;;;12.90;99.90;;;13.29;93.60;98405.97;5065643;28;20523;-89
2022/10/11 01:01:20;;;;;;;15.70;10.97;;;12.80;99.90;;;13.09;94.77;98405.28;5022881;28;20522;-91
2022/10/11 01:03:49;;;;;;;16.80;10.07;;;12.70;99.90;;;12.82;95.58;98392.78;5011009;28;20525;-91
2022/10/11 01:06:18;;;;;;;12.60;10.30;;;12.50;99.90;;;12.87;95.65;98406.50;5031721;28;20513;-91
2022/10/11 01:08:48;;;;;;;11.93;10.27;;;12.40;99.90;;;11.57;95.51;98200.88;5043899;28;20477;-90
2022/10/11 01:11:19;;;;;;;14.47;9.23;;;12.40;99.90;;;12.85;95.18;98395.06;5030258;28;20537;-93
2022/10/11 01:14:03;;;;;;;12.93;10.43;;;12.50;99.90;;;13.04;95.12;98409.50;5051934;28;20440;-91
2022/10/11 01:16:38;;;;;;;14.27;9.80;;;12.50;99.90;;;11.71;94.53;98182.72;5056626;28;20429;-90
2022/10/11 01:19:29;;;;;;;16.27;10.17;;;12.60;99.90;;;11.64;94.19;98205.44;4996175;28;20478;-92
2022/10/11 01:22:10;;;;;;;12.73;11.40;;;12.60;99.90;;;12.46;96.48;98380.78;5048170;28;20764;-88
2022/10/11 01:25:11;;;;;;;15.67;11.57;;;12.60;99.90;;;12.74;97.46;98421.00;5018814;28;20467;-88
2022/10/11 01:28:04;;;;;;;18.47;11.63;;;12.60;99.90;;;12.81;96.49;98412.00;5043700;28;20474;-92
2022/10/11 01:30:35;;;;;;;14.20;10.60;;;12.50;99.90;;;12.38;95.91;98362.91;5035618;28;20465;-94
2022/10/11 01:33:27;;;;;;;17.03;12.00;;;12.40;99.90;;;12.19;96.57;98353.84;5004456;28;20449;-91
2022/10/11 01:36:05;;;;;;;16.83;13.20;;;12.30;99.90;;;12.56;96.62;98423.66;5056031;28;20445;-95
2022/10/11 01:38:39;;;;;;;15.03;11.20;;;12.20;99.90;;;12.51;96.19;98421.59;5060898;28;20459;-94
2022/10/11 01:41:17;;;;;;;18.70;13.27;;;12.10;99.90;;;11.55;95.62;98300.41;5037947;28;20509;-93
2022/10/11 01:43:46;;;;;;;14.87;12.00;;;12.10;99.90;;;11.83;95.61;98331.72;5031373;28;20549;-87
2022/10/11 01:46:16;;;;;;;17.40;13.40;;;12.00;99.90;;;11.66;94.34;98287.25;5016194;28;20445;-90
2022/10/11 01:48:49;;;;;;;15.03;13.43;;;12.00;99.90;;;12.28;95.44;98416.72;5069866;28;20469;-88
2022/10/11 01:54:28;;;;;;;17.27;14.10;;;12.00;99.90;;;12.30;95.27;98433.59;5043219;28;20468;-94
2022/10/11 01:57:41;;;;;;;18.90;13.67;;;11.90;99.90;;;12.14;95.39;98438.44;5040810;28;20556;-93
2022/10/11 02:00:16;;;;;;;20.00;12.50;;;11.80;99.90;;;12.26;96.51;98462.16;5009226;28;20496;-94
2022/10/11 02:05:54;;;;;;;20.57;14.87;;;11.80;99.90;;;12.42;97.25;98442.69;5181633;27;20559;-90
2022/10/11 02:08:33;;;;;;;16.33;13.77;;;11.90;99.90;;;12.18;97.13;98418.00;5157544;27;20459;-88
2022/10/11 02:11:09;;;;;;;17.27;13.47;;;12.00;99.90;;;10.87;97.29;98202.47;5160601;27;20508;-86
2022/10/11 02:13:43;;;;;;;15.90;13.70;;;12.00;99.90;;;12.26;97.39;98411.50;5157479;27;20516;-88
2022/10/11 02:16:19;;;;;;;20.43;14.60;;;12.00;99.90;;;12.65;97.46;98452.13;5158255;27;20500;-89
2022/10/11 02:18:49;;;;;;;26.60;15.97;;;12.10;99.90;;;12.53;96.81;98454.72;5163368;27;20483;-91
2022/10/11 02:21:22;;;;;;;17.33;13.87;;;12.10;99.90;;;12.09;97.10;98373.28;5148899;27;20962;-90
2022/10/11 02:23:53;;;;;;;19.83;15.17;;;12.10;99.90;;;12.03;97.67;98377.69;5148710;27;20917;-91
2022/10/11 02:26:24;;;;;;;20.30;16.00;;;12.10;99.90;;;12.68;96.43;98475.28;5151056;27;20486;-95
2022/10/11 02:28:56;;;;;;;21.63;16.40;;;12.20;99.90;;;12.29;96.60;98407.53;5164812;27;20456;-92
2022/10/11 02:31:25;;;;;;;21.90;15.80;;;12.20;99.90;;;12.58;97.08;98459.50;5163998;27;20451;-88
2022/10/11 02:34:00;;;;;;;23.30;15.43;;;12.20;99.90;;;12.58;96.92;98437.81;5141978;27;20483;-90
2022/10/11 02:36:38;;;;;;;20.13;15.07;;;12.20;99.90;;;12.12;96.84;98367.41;5162085;27;20451;-93
2022/10/11 02:39:12;;;;;;;18.97;15.00;;;12.20;99.90;;;12.64;96.95;98449.66;5144088;27;20461;-94
2022/10/11 02:41:42;;;;;;;21.43;15.30;;;12.20;99.90;;;12.73;96.84;98459.19;5148178;27;20452;-91
2022/10/11 02:44:16;;;;;;;18.50;14.63;;;12.30;99.90;;;12.39;96.07;98386.22;5140813;27;20467;-92
2022/10/11 02:46:45;;;;;;;18.87;15.17;;;12.30;99.90;;;12.82;95.41;98460.59;5150347;27;20936;-96
2022/10/11 02:49:16;;;;;;;23.87;15.40;;;12.40;99.90;;;12.29;95.52;98366.91;5149509;27;20487;-92
2022/10/11 02:51:46;;;;;;;18.40;15.20;;;12.40;99.90;;;12.03;94.80;98320.81;5161352;27;20450;-92
2022/10/11 02:54:14;;;;;;;20.23;15.17;;;12.40;99.90;;;12.84;94.91;98461.19;5150845;27;20450;-89
2022/10/11 02:56:42;;;;;;;21.10;14.50;;;12.50;99.90;;;12.87;95.40;98454.50;5151308;27;20452;-89
2022/10/11 02:59:09;;;;;;;18.00;15.13;;;12.40;99.90;;;11.81;95.27;98298.63;5168937;27;20448;-88
2022/10/11 03:01:42;;;;;;;22.60;15.80;;;12.40;99.90;;;12.96;95.80;98461.31;5153441;27;20550;-94
2022/10/11 03:04:11;;;;;;;21.70;15.90;;;12.40;99.90;;;12.81;95.95;98442.66;5145148;27;20572;-93
2022/10/11 03:06:38;;;;;;;22.40;16.33;;;12.50;99.90;;;12.18;95.90;98344.88;5148248;27;20457;-91
2022/10/11 03:09:10;;;;;;;22.37;15.43;;;12.40;99.90;;;11.67;96.33;98267.25;5142076;27;20479;-92
2022/10/11 03:11:38;;;;;;;20.10;16.33;;;12.40;99.90;;;12.96;95.55;98466.72;5147371;27;20455;-95
2022/10/11 03:14:06;;;;;;;22.27;15.93;;;12.60;99.90;;;12.65;95.04;98427.75;5151132;27;20474;-93
2022/10/11 03:16:34;;;;;;;22.77;16.97;;;12.60;99.90;;;12.11;95.03;98341.38;5121176;27;20454;-96
2022/10/11 03:19:03;;;;;;;20.93;17.60;;;12.60;99.90;;;12.94;94.47;98438.19;5136852;27;20521;-93
2022/10/11 03:21:30;;;;;;;20.67;16.73;;;12.60;99.90;;;13.02;94.85;98471.28;5137043;27;20456;-91
2022/10/11 03:23:58;;;;;;;21.37;17.33;;;12.50;99.90;;;13.00;95.42;98467.13;5135835;27;20469;-91
2022/10/11 03:26:28;;;;;;;20.33;17.10;;;12.60;99.90;;;11.79;96.11;98338.63;5102385;27;20526;-91
2022/10/11 03:28:56;;;;;;;22.03;15.97;;;12.50;99.90;;;12.93;95.82;98488.88;5142739;27;20486;-92
2022/10/11 03:31:24;;;;;;;21.20;17.53;;;12.50;99.90;;;11.93;95.91;98349.38;5145581;27;20472;-89
2022/10/11 03:33:52;;;;;;;18.57;16.60;;;12.40;99.90;;;12.72;95.87;98479.19;5148096;27;20456;-90
2022/10/11 03:36:21;;;;;;;24.40;16.40;;;12.40;99.90;;;12.83;95.51;98472.28;5140857;27;20513;-91
2022/10/11 03:38:48;;;;;;;20.03;17.57;;;12.50;99.90;;;12.78;95.59;98491.91;5131652;27;20454;-90
2022/10/11 03:41:16;;;;;;;23.20;17.03;;;12.40;99.90;;;12.85;95.27;98503.53;5133801;27;20448;-93
2022/10/11 03:43:45;;;;;;;23.77;16.73;;;12.40;99.90;;;12.97;95.21;98500.97;5141281;27;20489;-89
2022/10/11 03:46:12;;;;;;;28.57;18.03;;;12.50;99.90;;;12.85;95.29;98514.38;5140874;27;20444;-90
2022/10/11 03:48:40;;;;;;;19.40;16.37;;;12.50;99.90;;;12.72;96.04;98482.75;5151291;27;20455;-89
2022/10/11 03:51:07;;;;;;;19.07;16.40;;;12.40;99.90;;;12.95;95.34;98504.94;5136868;27;20943;-90
2022/10/11 03:53:34;;;;;;;22.13;16.17;;;12.50;99.90;;;13.12;94.36;98507.97;5132366;27;20512;-89
2022/10/11 03:56:02;;;;;;;21.03;15.37;;;12.60;99.90;;;12.69;94.22;98426.28;5125374;27;20455;-88
2022/10/11 03:58:29;;;;;;;21.40;17.00;;;12.60;99.90;;;13.14;93.28;98484.97;5123606;27;20987;-91
2022/10/11 04:00:58;;;;;;;20.90;17.10;;;12.70;99.90;;;12.96;93.73;98496.56;5146813;27;20456;-89
2022/10/11 04:03:27;;;;;;;18.87;15.87;;;12.70;99.90;;;12.75;94.04;98443.53;5133480;27;20514;-91
2022/10/11 04:05:54;;;;;;;24.53;16.90;;;12.70;99.90;;;12.60;94.14;98427.56;5140358;27;20468;-94
2022/10/11 04:08:22;;;;;;;19.17;16.87;;;12.70;99.90;;;13.04;94.55;98495.47;5132949;27;20450;-91
2022/10/11 04:10:50;;;;;;;19.40;17.03;;;12.60;99.90;;;12.96;94.61;98491.13;5134517;27;20536;-95
2022/10/11 04:13:17;;;;;;;21.67;15.50;;;12.60;99.90;;;12.69;94.85;98456.09;5131416;27;20469;-92
2022/10/11 04:15:47;;;;;;;21.70;15.73;;;12.60;99.90;;;12.90;94.22;98478.47;5138129;27;20438;-90
2022/10/11 04:18:15;;;;;;;19.10;16.07;;;12.60;99.90;;;12.14;93.14;98345.56;5137457;27;20449;-95
2022/10/11 04:20:44;;;;;;;20.73;15.47;;;12.70;99.90;;;12.10;92.52;98318.06;5132199;27;20527;-94
2022/10/11 04:23:11;;;;;;;20.13;16.30;;;12.70;99.90;;;11.82;92.92;98284.03;5147858;27;20461;-95
2022/10/11 04:25:40;;;;;;;19.37;16.17;;;12.70;99.90;;;12.31;93.57;98394.59;5132263;27;20476;-90
2022/10/11 04:28:10;;;;;;;25.93;17.10;;;12.60;99.90;;;12.57;94.21;98428.84;5112943;27;20461;-89
2022/10/11 04:30:37;;;;;;;20.10;17.40;;;12.60;99.90;;;13.00;94.62;98511.38;5128031;27;20464;-89
2022/10/11 04:33:05;;;;;;;23.27;16.93;;;12.60;99.90;;;12.61;94.71;98457.19;5128943;27;20456;-91
2022/10/11 04:35:34;;;;;;;21.00;17.57;;;12.60;99.90;;;12.79;95.81;98506.28;5146254;27;20459;-90
2022/10/11 04:38:01;;;;;;;27.30;18.67;;;12.50;99.90;;;13.11;94.70;98517.13;5147422;27;20456;-89
2022/10/11 04:40:29;;;;;;;29.00;19.60;;;12.60;99.90;;;12.58;94.15;98440.53;5120631;27;21023;-80
2022/10/11 04:42:56;;;;;;;23.37;18.30;;;12.60;99.90;;;13.15;94.02;98521.06;5130489;27;20471;-79
2022/10/11 04:45:23;;;;;;;27.03;18.73;;;12.60;99.90;;;13.18;94.52;98515.22;5119371;27;20477;-79
2022/10/11 04:47:51;;;;;;;25.50;18.90;;;12.60;99.90;;;13.00;94.21;98511.38;5110151;28;20452;-80
2022/10/11 04:50:18;;;;;;;26.90;19.33;;;12.60;99.90;;;12.74;94.02;98479.84;5135709;27;20497;-78
2022/10/11 04:52:47;;;;;;;24.60;21.27;;;12.70;99.90;;;13.01;94.29;98534.72;5124649;27;20874;-79
2022/10/11 04:55:15;;;;;;;21.30;18.63;;;12.60;99.90;;;12.99;93.94;98536.00;5124257;27;20484;-79
2022/10/11 04:57:44;;;;;;;25.03;17.70;;;12.60;99.90;;;13.00;94.14;98538.50;5120440;27;20453;-79
2022/10/11 05:00:12;;;;;;;25.33;19.10;;;12.60;99.90;;;13.02;93.84;98532.84;5129809;27;20449;-79
2022/10/11 05:02:40;;;;;;;22.63;18.00;;;12.60;99.90;;;12.86;93.94;98520.63;5129467;27;20440;-76
2022/10/11 05:05:08;;;;;;;27.73;18.73;;;12.50;99.90;;;12.71;93.82;98500.06;5120307;27;20477;-78
2022/10/11 05:07:36;;;;;;;26.67;19.17;;;12.50;99.90;;;12.95;93.50;98534.78;5126228;27;20495;-78
2022/10/11 05:10:18;;;;;;;24.03;18.30;;;12.50;99.90;;;12.84;93.23;98526.28;5119302;27;20883;-76
2022/10/11 05:12:46;;;;;;;26.00;19.30;;;12.50;99.90;;;12.77;93.66;98532.78;5123038;27;20965;-78
2022/10/11 05:15:14;;;;;;;26.43;20.33;;;12.40;99.90;;;12.60;94.00;98534.13;5115981;27;20468;-76
2022/10/11 05:17:41;;;;;;;27.60;18.80;;;12.30;99.90;;;12.28;94.71;98498.00;5120276;27;20863;-84
2022/10/11 05:20:09;;;;;;;23.97;18.80;;;12.10;99.90;;;12.65;94.73;98538.88;5130394;27;20473;-85
2022/10/11 05:22:37;;;;;;;24.20;20.23;;;12.20;99.90;;;12.83;94.87;98543.59;5124934;27;20468;-80
2022/10/11 05:25:07;;;;;;;25.30;18.70;;;12.30;99.90;;;12.81;95.09;98539.44;5134605;27;20524;-78
2022/10/11 05:27:34;;;;;;;28.20;19.97;;;12.40;99.90;;;12.79;94.95;98542.38;5125111;27;20898;-75
2022/10/11 05:30:01;;;;;;;28.23;19.23;;;12.40;99.90;;;12.70;94.77;98540.94;5122200;27;20453;-79
2022/10/11 05:32:29;;;;;;;24.33;17.93;;;12.30;99.90;;;12.69;95.48;98550.97;5117263;27;20492;-81
2022/10/11 05:34:56;;;;;;;25.10;18.30;;;12.30;99.90;;;12.82;94.39;98554.66;5115396;27;20466;-79
2022/10/11 05:37:23;;;;;;;25.83;18.00;;;12.40;99.90;;;12.71;94.20;98557.00;5123441;27;20454;-79
2022/10/11 05:39:50;;;;;;;24.80;16.80;;;12.40;99.90;;;12.71;94.02;98567.84;5123843;27;20556;-79
2022/10/11 05:42:19;;;;;;;20.13;17.20;;;12.40;99.90;;;12.61;94.13;98567.47;5126954;27;20881;-80
2022/10/11 05:44:46;;;;;;;21.10;17.47;;;12.30;99.90;;;12.60;94.03;98565.81;5135795;27;20475;-82
2022/10/11 05:47:14;;;;;;;26.63;18.40;;;12.30;99.90;;;12.57;94.42;98577.91;5128149;27;20455;-78
2022/10/11 05:49:41;;;;;;;22.00;17.50;;;12.30;99.90;;;12.74;93.80;98577.44;5125323;27;21043;-81
2022/10/11 05:52:09;;;;;;;18.20;16.40;;;12.30;99.90;;;12.82;93.01;98573.66;5133008;27;20464;-86
2022/10/11 05:54:36;;;;;;;19.63;17.50;;;12.30;99.90;;;12.87;92.64;98584.66;5123677;27;20499;-79
2022/10/11 05:57:04;;;;;;;18.73;15.57;;;12.40;99.90;;;12.68;92.28;98560.16;5127363;27;20453;-78
2022/10/11 05:59:35;;;;;;;21.47;17.17;;;12.40;99.90;;;12.84;92.75;98593.25;5117869;27;21116;-78
2022/10/11 06:02:02;;;;;;;19.27;16.30;;;12.40;99.90;;;13.00;91.97;98598.16;5131430;27;20448;-81
2022/10/11 06:04:29;;;;;;;22.30;16.00;;;12.50;99.90;;;12.79;91.88;98603.88;5125030;27;20572;-82
2022/10/11 06:06:57;;;;;;;16.83;15.03;;;12.40;99.90;;;12.88;91.82;98600.72;5126707;27;20452;-79
2022/10/11 06:09:24;;;;;;;20.63;16.10;;;12.50;99.90;;;12.86;91.85;98605.53;5139680;27;20553;-77
2022/10/11 06:11:51;;;;;;;19.50;16.23;;;12.40;99.90;;;12.73;92.48;98602.88;5117596;28;20456;-83
2022/10/11 06:14:20;;;;;;;19.00;14.40;;;12.40;99.90;;;12.90;91.63;98616.78;5113814;27;20465;-79
2022/10/11 06:16:49;;;;;;;20.33;16.87;;;12.40;99.90;;;12.89;91.40;98613.25;5137507;27;20458;-79
2022/10/11 06:19:16;;;;;;;18.00;16.07;;;12.50;99.90;;;12.93;91.40;98613.63;5142562;27;20452;-79
2022/10/11 06:21:44;;;;;;;19.90;16.20;;;12.50;99.90;;;12.54;90.72;98555.84;5124593;27;20450;-79
2022/10/11 06:24:12;;;;;;;18.70;16.70;;;12.50;99.90;;;13.07;91.17;98618.97;5115837;28;20815;-80
2022/10/11 06:26:39;;;;;;;23.87;17.60;;;12.60;99.90;;;12.88;91.33;98632.44;5117564;28;20478;-78
2022/10/11 06:29:07;;;;;;;20.43;16.63;;;12.60;99.90;;;12.89;91.64;98625.97;5115965;28;20908;-76
2022/10/11 06:31:34;;;;;;;22.13;17.30;;;12.60;99.90;;;13.15;89.85;98626.88;5117630;28;20876;-78
2022/10/11 06:34:04;;;;;;;22.30;16.97;;;12.70;99.90;;;13.15;88.71;98616.84;5125765;27;20441;-79
2022/10/11 06:36:32;;;;;;;21.10;16.70;;;12.80;99.90;;;13.23;88.92;98645.59;5139175;27;20457;-78
2022/10/11 06:39:00;;;;;;;18.33;15.80;;;12.80;99.90;;;13.21;88.85;98628.72;5123793;28;20448;-81
2022/10/11 06:41:29;;;;;;;22.40;16.23;;;12.80;99.90;;;13.25;88.93;98643.50;5128699;28;20525;-76
2022/10/11 06:43:57;;;;;;;23.87;15.83;;;12.80;99.90;;;13.21;89.11;98645.00;5125196;27;20461;-78
2022/10/11 06:46:27;;;;;;;19.83;16.87;;;12.80;99.90;;;13.31;88.17;98639.09;5122079;28;20468;-78
2022/10/11 06:48:55;;;;;;;20.23;16.07;;;12.90;99.90;;;13.31;88.49;98658.09;5125857;28;20512;-80
2022/10/11 06:51:24;;;;;;;21.43;16.80;;;12.80;99.90;;;13.28;88.67;98653.94;5124735;27;20536;-81
2022/10/11 06:53:56;;;;;;;20.17;15.93;;;12.80;99.90;;;13.32;88.67;98668.72;5125251;27;20460;-83
2022/10/11 06:56:26;;;;;;;20.67;16.43;;;12.80;99.90;;;13.56;87.15;98658.16;5130603;27;20617;-80
2022/10/11 06:58:55;;;;;;;18.30;16.57;;;13.00;99.90;;;13.00;87.27;98594.59;5146731;27;20500;-77
2022/10/11 07:01:23;;;;;;;20.30;17.90;;;13.00;99.90;;;13.43;87.70;98671.81;5131095;27;20497;-79
2022/10/11 07:03:52;;;;;;;19.43;16.30;;;12.90;99.90;;;13.39;88.34;98676.84;5134361;27;20221;-81
2022/10/11 07:06:21;;;;;;;20.20;17.60;;;12.90;99.90;;;13.44;87.45;98665.38;5134451;27;20984;-81
2022/10/11 07:08:50;;;;;;;20.43;16.83;;;13.00;99.90;;;13.38;88.44;98669.75;5121689;27;20526;-81
2022/10/11 07:11:20;;;;;;;28.43;17.70;;;13.00;99.90;;;13.50;87.95;98682.66;5122028;27;20457;-78
2022/10/11 07:13:50;;;;;;;24.27;17.10;;;13.00;99.90;;;13.59;88.94;98679.47;5125470;27;20517;-77
2022/10/11 07:16:18;;;;;;;21.30;16.67;;;13.00;99.90;;;13.85;87.90;98685.75;5124258;27;20489;-78
2022/10/11 07:18:47;;;;;;;20.07;14.93;;;13.30;99.90;;;13.78;87.00;98671.41;5126703;27;20457;-78
2022/10/11 07:21:16;;;;;;;19.90;16.23;;;13.30;99.90;;;13.95;86.51;98693.41;5124747;27;20453;-77
2022/10/11 07:23:43;;;;;;;18.13;16.23;;;13.40;99.90;;;14.06;86.27;98705.44;5115700;27;20473;-80
2022/10/11 07:26:12;;;;;;;17.93;16.03;;;13.40;99.90;;;14.14;85.44;98694.28;5126416;27;20472;-79
2022/10/11 07:28:40;;;;;;;22.50;17.27;;;13.60;99.90;;;14.04;84.85;98707.56;5142039;27;20810;-82
2022/10/11 07:31:10;;;;;;;18.90;16.47;;;13.60;99.90;;;13.91;85.61;98704.94;5137036;27;20481;-79
2022/10/11 07:33:37;;;;;;;21.73;15.70;;;13.50;99.90;;;13.73;85.83;98695.66;5117677;27;20445;-79
2022/10/11 07:36:06;;;;;;;18.47;16.67;;;13.40;99.90;;;13.81;85.82;98689.13;5123097;27;20449;-79
2022/10/11 07:38:34;;;;;;;18.17;15.57;;;13.40;99.90;;;14.11;85.57;98700.16;5138863;27;20458;-83
2022/10/11 07:41:05;;;;;;;18.17;14.90;;;13.50;99.90;;;14.18;84.77;98711.00;5127519;27;20574;-78
2022/10/11 07:43:35;;;;;;;22.57;16.20;;;13.60;99.90;;;14.37;83.90;98709.16;5122068;27;21242;-79
2022/10/11 07:46:02;;;;;;;16.90;15.10;;;13.80;99.90;;;14.06;83.92;98663.84;5118330;27;20484;-78
2022/10/11 07:48:30;;;;;;;18.13;16.30;;;13.80;99.90;;;14.33;84.59;98715.25;5119542;27;20472;-77
2022/10/11 07:51:04;;;;;;;19.83;16.03;;;13.80;99.90;;;14.29;83.52;98718.44;5121174;27;20453;-78
2022/10/11 07:53:31;;;;;;;18.00;16.10;;;13.90;99.00;;;14.26;84.12;98718.88;5122342;27;20477;-77
2022/10/11 07:56:01;;;;;;;17.67;15.97;;;13.80;99.40;;;14.42;83.46;98714.75;5134573;27;20504;-77
2022/10/11 07:58:28;;;;;;;18.47;16.53;;;13.90;98.70;;;14.48;82.81;98715.75;5120625;27;20454;-77
2022/10/11 08:00:57;;;;;;;20.90;17.03;;;14.00;98.50;;;14.48;83.13;98714.91;5121288;27;20467;-78
2022/10/11 08:03:24;;;;;;;18.50;15.97;;;14.00;98.00;;;14.50;83.19;98710.91;5122161;27;20499;-77
2022/10/11 08:05:52;;;;;;;17.87;15.90;;;14.00;98.60;;;14.43;82.62;98708.25;5115018;27;20522;-77
2022/10/11 08:08:19;;;;;;;18.00;16.10;;;14.10;97.20;;;14.77;82.70;98705.22;5123116;27;20493;-78
2022/10/11 08:10:46;;;;;;;17.77;15.90;;;14.20;98.40;;;14.99;80.97;98713.78;5114282;27;20506;-77
2022/10/11 08:13:13;;;;;;;17.17;14.00;;;14.40;96.40;;;15.02;80.30;98721.47;5115856;27;20461;-76
2022/10/11 08:15:40;;;;;;;16.20;14.43;;;14.60;95.30;;;15.21;79.95;98713.28;5134865;27;21157;-78
2022/10/11 08:18:09;;;;;;;17.50;13.50;;;14.70;95.20;;;15.44;77.54;98714.47;5118715;27;20896;-78
2022/10/11 08:20:39;;;;;;;14.70;13.30;;;14.80;93.40;;;15.54;77.10;98720.22;5113132;27;20466;-78
2022/10/11 08:23:08;;;;;;;15.63;14.03;;;15.00;93.20;;;15.83;76.21;98719.56;5121418;27;20587;-75
2022/10/11 08:25:38;;;;;;;15.63;14.03;;;15.20;92.40;;;16.05;74.46;98722.63;5124284;27;20473;-77
2022/10/11 08:28:05;;;;;;;16.57;14.87;;;15.40;91.60;;;16.04;74.97;98726.41;5120318;27;20465;-75
2022/10/11 08:30:32;;;;;;;15.27;13.60;;;15.50;91.60;;;16.21;74.85;98726.53;5115101;27;20454;-78
2022/10/11 08:33:00;;;;;;;18.57;13.73;;;15.60;91.70;;;16.52;73.48;98721.00;5118982;27;20958;-77
2022/10/11 08:35:29;;;;;;;16.67;12.60;;;15.80;91.20;;;16.62;72.38;98718.53;5114369;27;20469;-77
2022/10/11 08:37:56;;;;;;;15.90;12.57;;;16.00;90.70;;;16.49;73.23;98724.22;5120442;27;20554;-78
2022/10/11 08:40:24;;;;;;;18.50;12.90;;;16.00;90.40;;;16.22;74.18;98725.47;5138696;27;20489;-76
2022/10/11 08:42:58;;;;;;;13.93;12.63;;;15.80;90.50;;;16.15;74.68;98727.50;5121059;27;20549;-79
2022/10/11 08:45:32;;;;;;;14.37;11.27;;;15.70;90.70;;;16.05;72.67;98684.47;5132166;27;20450;-78
2022/10/11 08:48:13;;;;;;;14.77;12.33;;;15.80;90.40;;;16.49;73.04;98729.66;5133325;27;20498;-78
2022/10/11 08:50:45;;;;;;;17.33;12.47;;;15.80;90.60;;;16.76;71.64;98726.47;5125321;27;20472;-78
2022/10/11 08:53:21;;;;;;;14.17;11.90;;;16.20;90.10;;;16.67;72.70;98718.63;5118008;27;20830;-79
2022/10/11 08:55:51;;;;;;;12.40;11.20;;;16.30;90.20;;;17.02;67.82;98699.72;5117725;27;20489;-78
2022/10/11 08:58:22;;;;;;;13.17;11.70;;;16.50;87.60;;;17.33;68.33;98727.66;5117863;27;20469;-80
2022/10/11 09:00:54;;;;;;;14.17;10.47;;;16.70;87.50;;;17.41;68.05;98725.38;5118188;27;20548;-79
2022/10/11 09:03:30;;;;;;;15.83;11.10;;;16.90;87.30;;;17.20;68.83;98726.84;5117232;27;20481;-82
2022/10/11 09:06:10;;;;;;;12.47;10.90;;;16.80;87.00;;;16.77;68.34;98717.22;5119518;27;20578;-80
2022/10/11 09:08:56;;;;;;;15.03;11.60;;;16.60;86.20;;;16.82;69.61;98730.94;5109787;27;20550;-76
2022/10/11 09:11:43;;;;;;;15.37;11.20;;;16.40;87.00;;;16.97;70.12;98723.09;5117385;27;20474;-77
2022/10/11 09:14:43;;;;;;;15.00;11.40;;;16.50;87.90;;;16.96;70.79;98726.91;5116154;27;20461;-85
2022/10/11 09:17:25;;;;;;;13.90;11.83;;;16.50;88.10;;;16.83;70.98;98727.16;5129853;27;20453;-79
2022/10/11 09:20:23;;;;;;;15.70;11.07;;;16.50;88.60;;;17.01;69.89;98728.09;5118193;27;20454;-77
2022/10/11 09:22:59;;;;;;;15.00;10.60;;;16.50;87.90;;;16.82;68.53;98717.31;5120136;27;20462;-84
2022/10/11 09:25:33;;;;;;;11.23;9.33;;;16.40;86.50;;;16.67;68.67;98726.81;5122062;27;20462;-75
2022/10/11 09:28:14;;;;;;;11.30;8.70;;;16.30;86.30;;;16.86;67.16;98715.75;5120748;27;20512;-73
2022/10/11 09:30:48;;;;;;;9.97;8.93;;;16.40;85.80;;;17.43;66.73;98725.16;5117681;27;21008;-74
2022/10/11 09:33:19;;;;;;;12.70;8.93;;;16.70;86.20;;;17.74;64.43;98730.34;5130312;27;20981;-75
2022/10/11 09:35:49;;;;;;;10.60;8.17;;;17.10;84.90;;;17.58;64.65;98724.59;5118412;27;20454;-75
2022/10/11 09:38:37;;;;;;;11.03;9.20;;;17.20;84.30;;;17.70;64.87;98725.38;5122130;27;20483;-79
2022/10/11 09:41:13;;;;;;;11.03;9.17;;;17.20;84.50;;;17.40;64.40;98731.91;5123640;27;20487;-80
2022/10/11 09:43:40;;;;;;;15.70;9.70;;;17.10;83.70;;;17.40;65.21;98725.63;5121330;27;20456;-81
2022/10/11 09:46:22;;;;;;;12.93;11.07;;;17.10;84.10;;;17.22;65.53;98727.47;5117565;27;20541;-82
2022/10/11 09:48:53;;;;;;;11.00;9.40;;;17.00;83.80;;;17.58;65.82;98731.97;5119578;27;20511;-79
2022/10/11 09:51:24;;;;;;;11.20;9.80;;;17.10;84.70;;;17.58;67.66;98726.50;5119064;27;20453;-81
2022/10/11 09:54:00;;;;;;;11.87;10.47;;;17.20;85.80;;;17.92;66.05;98737.50;5128433;27;20509;-77
2022/10/11 09:56:31;;;;;;;14.20;10.47;;;17.40;85.40;;;18.14;64.97;98728.63;5120720;27;20491;-77
2022/10/11 09:59:29;;;;;;;15.77;11.53;;;17.60;85.10;;;17.66;65.12;98728.84;5121905;27;20456;-75
2022/10/11 10:02:21;;;;;;;11.57;9.50;;;17.60;83.70;;;17.87;64.78;98734.69;5071535;27;20479;-76
2022/10/11 10:04:59;;;;;;;14.53;10.33;;;17.50;84.10;;;17.60;65.44;98716.16;5118639;28;20470;-76
2022/10/11 10:07:28;;;;;;;10.27;9.37;;;17.30;84.20;;;17.69;65.13;98734.66;5119295;27;20470;-75
2022/10/11 10:09:57;;;;;;;9.97;8.97;;;17.20;84.20;;;17.98;63.20;98725.59;5123743;28;20515;-77
2022/10/11 10:12:27;;;;;;;12.33;9.77;;;17.40;83.50;;;17.83;63.28;98743.41;5120125;28;20828;-76
2022/10/11 10:15:04;;;;;;;9.47;8.60;;;17.40;83.10;;;17.89;63.81;98735.28;5120103;28;20501;-76
2022/10/11 10:17:31;;;;;;;10.57;8.23;;;17.40;83.30;;;17.91;63.41;98727.66;5138097;27;20446;-75
2022/10/11 10:20:00;;;;;;;9.57;7.73;;;17.50;83.10;;;17.89;63.32;98733.34;5124374;28;20460;-76
2022/10/11 10:22:30;;;;;;;9.90;8.30;;;17.50;83.10;;;17.75;63.48;98732.03;5118986;28;20470;-76
2022/10/11 10:25:06;;;;;;;14.13;7.80;;;17.40;82.70;;;18.02;62.09;98731.38;5118349;27;20527;-77
2022/10/11 10:27:34;;;;;;;9.17;7.43;;;17.50;82.40;;;17.60;61.79;98691.56;5121279;27;20558;-77
2022/10/11 10:30:15;;;;;;;11.23;8.00;;;17.40;81.70;;;17.84;61.93;98736.00;5120570;27;20449;-77